Data for 12/01/2016

Time Sea-Level Adjusted Pressure Absolute Pressure Temperature Relative Humidity Dew Point   
(mb) (inHg) (mb) (inHg) (C) (F) (%) (C) (F)
00:05 1015 29.97 844 24.92 -2.7 27.1 75 -6.6 20.2
00:10 1015 29.97 844 24.92 -2.7 27.2 74 -6.6 20.1
00:15 1015 29.97 844 24.92 -2.5 27.4 74 -6.5 20.3
00:20 1015 29.97 844 24.92 -2.5 27.5 75 -6.3 20.6
00:25 1015 29.97 844 24.92 -2.6 27.4 75 -6.4 20.4
00:30 1015 29.97 844 24.92 -2.5 27.5 75 -6.4 20.6
00:35 1015 29.97 844 24.92 -2.5 27.6 75 -6.3 20.6
00:40 1015 29.97 844 24.92 -2.4 27.7 75 -6.3 20.7
00:45 1015 29.97 844 24.92 -2.3 27.9 74 -6.3 20.6
00:50 1015 29.97 844 24.92 -2.2 28.1 73 -6.4 20.5
00:55 1015 29.97 844 24.92 -2.2 28 73 -6.4 20.5
01:00 1015 29.97 844 24.92 -2.3 27.9 74 -6.3 20.7
01:05 1015 29.97 844 24.92 -2.4 27.8 74 -6.3 20.6
01:10 1015 29.97 844 24.92 -2.5 27.4 75 -6.4 20.5
01:15 1015 29.97 844 24.92 -2.7 27.2 76 -6.4 20.4
01:20 1015 29.97 844 24.92 -2.7 27.2 75 -6.5 20.3
01:25 1015 29.97 844 24.92 -2.5 27.5 75 -6.4 20.5
01:30 1015 29.97 844 24.92 -2.5 27.4 75 -6.4 20.5
01:35 1015 29.97 844 24.92 -2.4 27.6 74 -6.5 20.3
01:40 1015 29.97 844 24.92 -2.4 27.6 74 -6.4 20.4
01:45 1015 29.97 844 24.92 -2.3 27.9 73 -6.5 20.3
01:50 1015 29.97 844 24.92 -2.2 28.1 72 -6.5 20.3
01:55 1015 29.97 844 24.92 -2.1 28.2 72 -6.6 20.2
02:00 1015 29.97 844 24.92 -2 28.5 72 -6.4 20.5
02:05 1015 29.97 844 24.92 -2.1 28.2 72 -6.4 20.5
02:10 1015 29.97 844 24.92 -2.4 27.7 74 -6.5 20.4
02:15 1015 29.97 844 24.92 -2.6 27.3 75 -6.4 20.6
02:20 1015 29.97 844 24.92 -2.5 27.5 74 -6.6 20.2
02:25 1015 29.97 844 24.92 -2.3 27.8 73 -6.6 20.1
02:30 1015 29.97 844 24.92 -2.3 27.9 72 -6.6 20.1
02:35 1015 29.97 844 24.92 -2.2 28 72 -6.5 20.3
02:40 1015 29.97 844 24.92 -2.2 28.1 72 -6.6 20.1
02:45 1015 29.97 845 24.95 -2.1 28.3 72 -6.5 20.4
02:50 1015 29.97 845 24.95 -2.1 28.2 72 -6.5 20.3
02:55 1015 29.97 845 24.95 -2.2 28.1 73 -6.5 20.3
03:00 1015 29.97 845 24.95 -2.2 28 73 -6.5 20.3
03:05 1015 29.97 845 24.95 -2.2 28.1 72 -6.6 20
03:10 1015 29.97 845 24.95 -2 28.3 70 -6.9 19.6
03:15 1015 29.97 845 24.95 -1.8 28.7 68 -6.9 19.6
03:20 1016 30 845 24.95 -1.7 28.9 68 -6.8 19.7
03:25 1016 30 845 24.95 -1.7 29 67 -7 19.5
03:30 1016 30 845 24.95 -1.6 29.1 67 -7 19.4
03:35 1016 30 845 24.95 -1.6 29.2 67 -6.9 19.5
03:40 1016 30 845 24.95 -1.5 29.3 67 -6.9 19.6
03:45 1016 30 845 24.95 -1.6 29 70 -6.4 20.5
03:50 1016 30 845 24.95 -2 28.4 71 -6.6 20.2
03:55 1016 30 845 24.95 -2.1 28.1 72 -6.5 20.4
04:00 1015 29.97 845 24.95 -2.3 27.9 74 -6.3 20.7
04:05 1015 29.97 845 24.95 -2.5 27.6 75 -6.3 20.6
04:10 1015 29.97 845 24.95 -2.6 27.3 75 -6.5 20.4
04:15 1015 29.97 845 24.95 -2.6 27.3 75 -6.6 20.2
04:20 1015 29.97 845 24.95 -2.6 27.2 75 -6.4 20.4
04:25 1015 29.97 845 24.95 -2.7 27.2 75 -6.5 20.3
04:30 1015 29.97 845 24.95 -2.8 27 76 -6.4 20.5
04:35 1015 29.97 845 24.95 -2.9 26.8 78 -6.3 20.7
04:40 1015 29.97 845 24.95 -3 26.6 78 -6.3 20.7
04:45 1015 29.97 845 24.95 -3.1 26.5 79 -6.2 20.8
04:50 1015 29.97 844 24.92 -3.1 26.4 80 -6.2 20.9
04:55 1015 29.97 844 24.92 -3.1 26.3 80 -6.2 20.8
05:00 1015 29.97 844 24.92 -3.1 26.4 79 -6.2 20.8
05:05 1015 29.97 844 24.92 -3 26.6 79 -6.1 20.9
05:10 1015 29.97 845 24.95 -3 26.6 79 -6.2 20.9
05:15 1015 29.97 845 24.95 -3 26.5 79 -6.2 20.8
05:20 1015 29.97 844 24.92 -3 26.5 80 -6.1 21
05:25 1015 29.97 844 24.92 -3.1 26.3 80 -6.2 20.9
05:30 1015 29.97 845 24.95 -3.1 26.4 79 -6.2 20.9
05:35 1015 29.97 845 24.95 -3.3 26.1 81 -6.1 21.1
05:40 1015 29.97 845 24.95 -3.4 25.9 82 -6.1 21.1
05:45 1015 29.97 845 24.95 -3.4 26 82 -6 21.2
05:50 1015 29.97 845 24.95 -3.3 26.1 81 -6.1 21.1
05:55 1015 29.97 845 24.95 -3.2 26.2 81 -6 21.1
06:00 1015 29.97 845 24.95 -3.1 26.3 80 -6.1 21
06:05 1015 29.97 845 24.95 -3.1 26.4 80 -6.1 21
06:10 1015 29.97 844 24.92 -3.2 26.3 80 -6.1 21
06:15 1015 29.97 844 24.92 -3.2 26.2 80 -6.1 21
06:20 1015 29.97 844 24.92 -3.1 26.4 80 -6.1 21
06:25 1015 29.97 844 24.92 -3.1 26.4 80 -6.1 21
06:30 1015 29.97 844 24.92 -3.1 26.4 80 -6.1 21
06:35 1015 29.97 844 24.92 -3.1 26.5 80 -6.1 21
06:40 1015 29.97 844 24.92 -3 26.6 79 -6.1 21
06:45 1015 29.97 844 24.92 -3 26.7 79 -6.2 20.9
06:50 1015 29.97 844 24.92 -3.2 26.3 80 -6.2 20.9
06:55 1015 29.97 844 24.92 -3.4 25.9 81 -6.2 20.8
07:00 1015 29.97 844 24.92 -3.5 25.6 81 -6.3 20.6
07:05 1015 29.97 844 24.92 -3.6 25.6 81 -6.3 20.6
07:10 1015 29.97 844 24.92 -3.6 25.6 81 -6.3 20.6
07:15 1015 29.97 844 24.92 -3.6 25.5 82 -6.3 20.7
07:20 1015 29.97 844 24.92 -3.5 25.6 81 -6.3 20.7
07:25 1015 29.97 844 24.92 -3.4 25.8 81 -6.2 20.8
07:30 1015 29.97 844 24.92 -3.5 25.7 81 -6.2 20.8
07:35 1015 29.97 844 24.92 -3.5 25.7 82 -6.2 20.9
07:40 1015 29.97 844 24.92 -3.4 25.8 81 -6.3 20.7
07:45 1015 29.97 844 24.92 -3.3 26.1 79 -6.4 20.5
07:50 1015 29.97 844 24.92 -3.2 26.3 78 -6.4 20.5
07:55 1015 29.97 844 24.92 -3.2 26.3 78 -6.4 20.4
08:00 1015 29.97 844 24.92 -3.2 26.3 78 -6.5 20.4
08:05 1015 29.97 845 24.95 -3.3 26 78 -6.7 20
08:10 1015 29.97 845 24.95 -3.7 25.4 80 -6.6 20.1
08:15 1015 29.97 845 24.95 -3.8 25.1 80 -6.7 19.9
08:20 1015 29.97 845 24.95 -3.8 25.1 81 -6.6 20
08:25 1015 29.97 845 24.95 -4 24.8 82 -6.6 20.2
08:30 1015 29.97 845 24.95 -4.1 24.5 84 -6.5 20.4
08:35 1015 29.97 845 24.95 -4.2 24.5 84 -6.5 20.3
08:40 1015 29.97 845 24.95 -4.1 24.5 84 -6.5 20.2
08:45 1015 29.97 845 24.95 -4.2 24.5 83 -6.6 20.2
08:50 1015 29.97 845 24.95 -4 24.9 82 -6.7 20
08:55 1015 29.97 845 24.95 -3.9 25 83 -6.4 20.4
09:00 1015 29.97 845 24.95 -3.8 25.2 81 -6.5 20.3
09:05 1015 29.97 845 24.95 -3.8 25.2 76 -7.4 18.7
09:10 1016 30 845 24.95 -3.3 26 78 -6.7 19.9
09:15 1016 30 845 24.95 -3.5 25.6 79 -6.7 19.9
09:20 1016 30 845 24.95 -3.8 25.1 81 -6.7 19.9
09:25 1016 30 845 24.95 -3.9 25 80 -6.9 19.6
09:30 1016 30 845 24.95 -3.8 25.1 79 -6.9 19.6
09:35 1016 30 845 24.95 -3.7 25.3 80 -6.7 20
09:40 1016 30 845 24.95 -3.5 25.8 79 -6.7 20
09:45 1016 30 845 24.95 -3.4 25.9 76 -7 19.5
09:50 1016 30 845 24.95 -3.2 26.3 75 -7 19.4
09:55 1016 30 845 24.95 -3 26.5 71 -7.6 18.4
10:00 1016 30 845 24.95 -2.8 26.9 70 -7.5 18.4
10:05 1016 30 845 24.95 -2.7 27.1 71 -7.3 18.8
10:10 1016 30 845 24.95 -2.6 27.3 73 -6.8 19.8
10:15 1016 30 845 24.95 -2.8 27 75 -6.6 20.2
10:20 1016 30 845 24.95 -3.1 26.5 75 -6.9 19.7
10:25 1016 30 845 24.95 -3.1 26.4 76 -6.8 19.7
10:30 1016 30 845 24.95 -3 26.6 76 -6.7 19.9
10:35 1016 30 845 24.95 -2.8 27 72 -7.1 19.1
10:40 1016 30 845 24.95 -2.5 27.4 74 -6.5 20.3
10:45 1016 30 845 24.95 -3.1 26.5 77 -6.6 20.1
10:50 1016 30 846 24.98 -3 26.6 76 -6.6 20.2
10:55 1016 30 846 24.98 -2.7 27.1 75 -6.6 20
11:00 1016 30 846 24.98 -2.4 27.7 73 -6.5 20.3
11:05 1016 30 846 24.98 -2 28.4 70 -6.7 19.9
11:10 1016 30 846 24.98 -1.9 28.6 70 -6.7 20
11:15 1016 30 846 24.98 -1.8 28.7 71 -6.5 20.3
11:20 1016 30 846 24.98 -1.8 28.7 70 -6.6 20.1
11:25 1016 30 846 24.98 -1.8 28.7 70 -6.6 20.1
11:30 1016 30 846 24.98 -1.3 29.6 68 -6.6 20.1
11:35 1016 30 846 24.98 -0.9 30.4 65 -6.6 20
11:40 1016 30 846 24.98 -0.9 30.4 67 -6.3 20.7
11:45 1016 30 846 24.98 -0.9 30.4 65 -6.6 20.1
11:50 1016 30 846 24.98 -0.9 30.4 67 -6.3 20.6
11:55 1016 30 846 24.98 -0.4 31.3 62 -6.9 19.6
12:00 1016 30 846 24.98 -0.1 31.8 62 -6.5 20.4
12:05 1016 30 846 24.98 0.1 32.2 60 -6.8 19.8
12:10 1016 30 846 24.98 1 33.9 58 -6.3 20.6
12:15 1016 30 846 24.98 1.5 34.8 57 -6.1 21.1
12:20 1016 30 846 24.98 1.4 34.4 58 -6.1 21
12:25 1016 30 846 24.98 0.4 32.7 62 -6.1 21
12:30 1016 30 846 24.98 0.3 32.5 61 -6.5 20.3
12:35 1016 30 846 24.98 0.4 32.8 60 -6.4 20.5
12:40 1016 30 846 24.98 0.3 32.5 61 -6.3 20.6
12:45 1016 30 846 24.98 0.1 32.2 63 -6.2 20.8
12:50 1016 30 846 24.98 0.5 33 59 -6.6 20.2
12:55 1016 30 846 24.98 0.5 32.9 61 -6.2 20.9
13:00 1016 30 845 24.95 0.8 33.4 58 -6.5 20.3
13:05 1016 30 846 24.98 0.8 33.5 58 -6.5 20.3
13:10 1016 30 846 24.98 0.8 33.4 59 -6.4 20.5
13:15 1016 30 846 24.98 0.6 33.2 59 -6.4 20.5
13:20 1016 30 846 24.98 0.6 33 60 -6.2 20.8
13:25 1016 30 846 24.98 0.5 32.8 64 -5.6 21.9
13:30 1016 30 846 24.98 -0.1 31.9 67 -5.4 22.3
13:35 1016 30 846 24.98 -0.3 31.5 66 -5.8 21.5
13:40 1016 30 846 24.98 -0 32 66 -5.6 22
13:45 1016 30 846 24.98 -0 31.9 68 -5.3 22.5
13:50 1016 30 846 24.98 -0 31.9 67 -5.4 22.3
13:55 1016 30 846 24.98 -0 31.9 69 -5.1 22.7
14:00 1016 30 845 24.95 -0.3 31.5 69 -5.2 22.6
14:05 1016 30 845 24.95 -0.7 30.7 72 -5.1 22.9
14:10 1016 30 845 24.95 -0.6 30.9 70 -5.4 22.3
14:15 1016 30 845 24.95 -0.5 31.1 70 -5.3 22.4
14:20 1016 30 845 24.95 -0.5 31.1 68 -5.6 21.9
14:25 1016 30 846 24.98 -0.5 31 70 -5.4 22.3
14:30 1016 30 845 24.95 -0.4 31.3 69 -5.4 22.3
14:35 1016 30 845 24.95 -0.2 31.6 68 -5.4 22.3
14:40 1016 30 845 24.95 -0.1 31.8 68 -5.3 22.5
14:45 1016 30 845 24.95 -0.1 31.7 68 -5.3 22.4
14:50 1016 30 845 24.95 -0.3 31.5 69 -5.2 22.6
14:55 1016 30 845 24.95 -0.4 31.2 69 -5.4 22.2
15:00 1016 30 845 24.95 -0.5 31.2 69 -5.4 22.3
15:05 1016 30 846 24.98 -0.5 31 70 -5.3 22.5
15:10 1016 30 846 24.98 -0.5 31.1 70 -5.3 22.5
15:15 1016 30 846 24.98 -0.8 30.6 72 -5.2 22.7
15:20 1016 30 846 24.98 -0.8 30.5 73 -5.2 22.7
15:25 1016 30 846 24.98 -1 30.2 75 -5 23
15:30 1016 30 846 24.98 -1 30.3 72 -5.4 22.2
15:35 1016 30 846 24.98 -0.9 30.4 73 -5 22.9
15:40 1017 30.03 846 24.98 -0.8 30.5 74 -5 23
15:45 1017 30.03 846 24.98 -1 30.2 73 -5.2 22.6
15:50 1017 30.03 846 24.98 -0.8 30.6 73 -5 23.1
15:55 1017 30.03 846 24.98 -0.5 31.1 71 -5.1 22.7
16:00 1017 30.03 846 24.98 -0.7 30.7 72 -5.1 22.9
16:05 1017 30.03 846 24.98 -0.9 30.5 74 -4.9 23.1
16:10 1017 30.03 846 24.98 -0.8 30.5 75 -4.7 23.6
16:15 1017 30.03 846 24.98 -0.7 30.8 75 -4.6 23.7
16:20 1017 30.03 846 24.98 -0.9 30.4 77 -4.5 23.9
16:25 1017 30.03 846 24.98 -0.9 30.3 78 -4.4 24.2
16:30 1017 30.03 846 24.98 -0.9 30.3 81 -3.9 25
16:35 1017 30.03 846 24.98 -1.1 30 82 -3.7 25.3
16:40 1017 30.03 846 24.98 -1.5 29.3 84 -3.9 25
16:45 1017 30.03 846 24.98 -1.9 28.7 86 -3.8 25.1
16:50 1017 30.03 846 24.98 -2 28.4 88 -3.7 25.3
16:55 1017 30.03 846 24.98 -2 28.4 88 -3.7 25.3
17:00 1017 30.03 846 24.98 -2 28.3 89 -3.7 25.4
17:05 1017 30.03 846 24.98 -2.1 28.2 86 -4.1 24.6
17:10 1017 30.03 846 24.98 -2.1 28.3 86 -4.1 24.6
17:15 1017 30.03 846 24.98 -2.1 28.2 87 -4 24.8
17:20 1017 30.03 846 24.98 -2.1 28.2 87 -4 24.9
17:25 1017 30.03 847 25.01 -2.1 28.2 87 -4 24.8
17:30 1017 30.03 847 25.01 -2.1 28.2 87 -4 24.8
17:35 1017 30.03 847 25.01 -2.1 28.2 87 -4 24.8
17:40 1017 30.03 847 25.01 -2.1 28.3 87 -4 24.8
17:45 1017 30.03 847 25.01 -2 28.3 86 -4.1 24.6
17:50 1018 30.06 847 25.01 -2 28.4 85 -4.2 24.5
17:55 1018 30.06 847 25.01 -2 28.4 85 -4.2 24.5
18:00 1018 30.06 847 25.01 -2 28.4 85 -4.2 24.4
18:05 1018 30.06 847 25.01 -2 28.4 84 -4.3 24.3
18:10 1018 30.06 847 25.01 -2 28.4 85 -4.2 24.4
18:15 1018 30.06 847 25.01 -2 28.4 86 -4.1 24.7
18:20 1018 30.06 847 25.01 -2 28.5 85 -4.2 24.5
18:25 1018 30.06 847 25.01 -2 28.4 85 -4.1 24.6
18:30 1018 30.06 847 25.01 -2.2 28.1 87 -4 24.8
18:35 1018 30.06 847 25.01 -2.2 28.1 88 -4 24.9
18:40 1018 30.06 847 25.01 -2.2 28 89 -3.9 25
18:45 1018 30.06 847 25.01 -2.3 27.9 89 -3.8 25.1
18:50 1018 30.06 847 25.01 -2.3 27.9 90 -3.7 25.3
18:55 1018 30.06 847 25.01 -2.3 27.9 90 -3.7 25.3
19:00 1018 30.06 847 25.01 -2.3 27.8 90 -3.7 25.3
19:05 1018 30.06 847 25.01 -2.3 27.8 90 -3.8 25.2
19:10 1018 30.06 847 25.01 -2.4 27.8 91 -3.7 25.4
19:15 1018 30.06 847 25.01 -2.3 27.8 90 -3.7 25.4
19:20 1018 30.06 847 25.01 -2.3 27.8 90 -3.7 25.4
19:25 1018 30.06 847 25.01 -2.3 27.9 90 -3.7 25.4
19:30 1018 30.06 848 25.04 -2.3 27.8 91 -3.6 25.5
19:35 1018 30.06 848 25.04 -2.3 27.8 90 -3.7 25.4
19:40 1018 30.06 848 25.04 -2.4 27.8 91 -3.7 25.4
19:45 1018 30.06 848 25.04 -2.4 27.8 91 -3.6 25.4
19:50 1018 30.06 848 25.04 -2.3 27.9 91 -3.5 25.7
19:55 1018 30.06 848 25.04 -2.3 27.9 91 -3.5 25.7
20:00 1019 30.09 848 25.04 -2.3 27.9 91 -3.5 25.7
20:05 1019 30.09 848 25.04 -2.3 27.8 91 -3.6 25.6
20:10 1019 30.09 848 25.04 -2.3 27.8 91 -3.6 25.6
20:15 1019 30.09 848 25.04 -2.4 27.8 92 -3.6 25.6
20:20 1019 30.09 848 25.04 -2.3 27.8 91 -3.5 25.6
20:25 1019 30.09 848 25.04 -2.3 27.8 91 -3.6 25.6
20:30 1019 30.09 848 25.04 -2.3 27.8 91 -3.6 25.6
20:35 1019 30.09 848 25.04 -2.4 27.7 91 -3.6 25.6
20:40 1019 30.09 848 25.04 -2.4 27.6 91 -3.7 25.4
20:45 1019 30.09 848 25.04 -2.5 27.6 91 -3.7 25.4
20:50 1019 30.09 848 25.04 -2.5 27.5 92 -3.7 25.4
20:55 1019 30.09 848 25.04 -2.5 27.6 92 -3.6 25.4
21:00 1019 30.09 848 25.04 -2.5 27.4 92 -3.7 25.3
21:05 1019 30.09 848 25.04 -2.6 27.2 92 -3.8 25.2
21:10 1019 30.09 848 25.04 -2.6 27.2 92 -3.8 25.1
21:15 1019 30.09 848 25.04 -2.7 27.2 92 -3.8 25.2
21:20 1019 30.09 848 25.04 -2.6 27.2 92 -3.8 25.1
21:25 1019 30.09 848 25.04 -2.7 27.2 91 -4 24.9
21:30 1019 30.09 848 25.04 -2.8 26.9 91 -4.1 24.6
21:35 1019 30.09 848 25.04 -2.8 26.9 91 -4.1 24.6
21:40 1019 30.09 848 25.04 -2.8 27 91 -4 24.8
21:45 1019 30.09 848 25.04 -2.7 27.1 91 -4 24.8
21:50 1019 30.09 848 25.04 -2.8 27 91 -4 24.8
21:55 1019 30.09 848 25.04 -2.8 27 91 -4 24.8
22:00 1019 30.09 848 25.04 -2.8 27 91 -4 24.8
22:05 1019 30.09 849 25.07 -2.7 27.1 91 -4 24.8
22:10 1019 30.09 849 25.07 -2.7 27.1 91 -4 24.8
22:15 1019 30.09 849 25.07 -2.8 27 91 -4 24.7
22:20 1019 30.09 849 25.07 -2.7 27.1 90 -4.1 24.6
22:25 1020 30.12 849 25.07 -2.7 27.1 91 -4.1 24.7
22:30 1020 30.12 849 25.07 -2.7 27.1 91 -4 24.8
22:35 1020 30.12 849 25.07 -2.8 27 92 -4 24.9
22:40 1020 30.12 849 25.07 -2.8 27 92 -4 24.9
22:45 1020 30.12 849 25.07 -2.7 27.1 91 -4 24.9
22:50 1020 30.12 849 25.07 -2.7 27.1 91 -3.9 24.9
22:55 1020 30.12 849 25.07 -2.7 27.1 91 -3.9 24.9
23:00 1020 30.12 849 25.07 -2.8 27 92 -3.9 24.9
23:05 1020 30.12 849 25.07 -2.8 27 92 -3.9 24.9
23:10 1020 30.12 849 25.07 -2.8 27 92 -3.9 25
23:15 1020 30.12 849 25.07 -2.8 27 92 -3.9 25
23:20 1020 30.12 849 25.07 -2.8 27 92 -3.9 24.9
23:25 1020 30.12 849 25.07 -2.9 26.9 92 -4 24.8
23:30 1020 30.12 849 25.07 -2.9 26.8 92 -4 24.7
23:35 1020 30.12 849 25.07 -2.9 26.7 92 -4.1 24.7
23:40 1020 30.12 849 25.07 -2.9 26.7 92 -4.1 24.6
23:45 1020 30.12 849 25.07 -2.9 26.7 92 -4.1 24.6
23:50 1020 30.12 849 25.07 -3 26.7 91 -4.2 24.5
23:55 1020 30.12 849 25.07 -2.9 26.7 91 -4.2 24.4
24:00 1020 30.12 849 25.07 -2.9 26.8 90 -4.2 24.4